Brightway — 9V8755 — position and weather

sailwx.info

Track history (hours):
 
Tides and Currents Weather Stations Pressure Air Temp Water Temp Dewpoint Dewpoint Depression Visibility Wind Speed Wind Dir Waves Ship Positions

Brightway

Last reported at 2018-Jan-21 05:33 UTC. Time now 2018-Jan-22 02:47 UTC.
Position N 27°03' W 096°29'.

Length 274 m; draft 12.7 m.

Type: Tanker. MMSI: 566422000.

Date/timePositionNaut miles runAvg speedWind from/ knotsBaromVisibWave heightAir tempDewpointWater temp
2018-Jan-21 05:33N 27°03' W 096°29'511.6
2018-Jan-21 05:08N 27°08' W 096°30'311.8
2018-Jan-21 04:55N 27°10' W 096°30'611.9
2018-Jan-21 04:24N 27°16' W 096°31'511.8
2018-Jan-21 03:59N 27°21' W 096°32'611.7
2018-Jan-21 03:30N 27°26' W 096°34'611.8
2018-Jan-21 03:00N 27°32' W 096°35'611.3
2018-Jan-21 02:29N 27°36' W 096°40'612.0
2018-Jan-21 02:00N 27°39' W 096°45'612.0
2018-Jan-21 01:29N 27°43' W 096°50'611.4
2018-Jan-21 01:00N 27°46' W 096°56'4 8.5
2018-Jan-21 00:29N 27°49' W 096°60'4 9.1
2018-Jan-21 00:00N 27°50' W 097°04'4 7.6
2018-Jan-20 23:29N 27°50' W 097°09'4 8.7
2018-Jan-20 22:59N 27°49' W 097°13'6 9.9
2018-Jan-20 22:24N 27°49' W 097°20'4 5.4
2018-Jan-20 21:43N 27°49' W 097°24'  
2018-Jan-11 17:44N 29°44' W 095°08'0 0.2
2018-Jan-11 17:30N 29°44' W 095°08'1 2.2
2018-Jan-11 17:00N 29°45' W 095°06'2 4.4
2018-Jan-11 16:30N 29°45' W 095°04'3 6.5
2018-Jan-11 16:01N 29°43' W 095°01'5 9.2
2018-Jan-11 15:31N 29°39' W 094°58'510.3
2018-Jan-11 15:01N 29°34' W 094°55'510.9
2018-Jan-11 14:30N 29°30' W 094°52'510.8
2018-Jan-11 14:01N 29°25' W 094°49'510.5
2018-Jan-11 13:31N 29°21' W 094°46'  
Track history (hours):
 
Tides and Currents Weather Stations Pressure Air Temp Water Temp Dewpoint Dewpoint Depression Visibility Wind Speed Wind Dir Waves Ship Positions

Brightway

Last reported at 2018-Jan-21 05:33 UTC. Time now 2018-Jan-22 02:47 UTC.
Position N 27°03' W 096°29'.

Length 274 m; draft 12.7 m.

Type: Tanker. MMSI: 566422000.

Date/timePositionNaut miles runAvg speedWind from/ knotsBaromVisibWave heightAir tempDewpointWater temp
2018-Jan-21 05:33N 27°03' W 096°29'511.6
2018-Jan-21 05:08N 27°08' W 096°30'311.8
2018-Jan-21 04:55N 27°10' W 096°30'611.9
2018-Jan-21 04:24N 27°16' W 096°31'511.8
2018-Jan-21 03:59N 27°21' W 096°32'611.7
2018-Jan-21 03:30N 27°26' W 096°34'611.8
2018-Jan-21 03:00N 27°32' W 096°35'611.3
2018-Jan-21 02:29N 27°36' W 096°40'612.0
2018-Jan-21 02:00N 27°39' W 096°45'612.0
2018-Jan-21 01:29N 27°43' W 096°50'611.4
2018-Jan-21 01:00N 27°46' W 096°56'4 8.5
2018-Jan-21 00:29N 27°49' W 096°60'4 9.1
2018-Jan-21 00:00N 27°50' W 097°04'4 7.6
2018-Jan-20 23:29N 27°50' W 097°09'4 8.7
2018-Jan-20 22:59N 27°49' W 097°13'6 9.9
2018-Jan-20 22:24N 27°49' W 097°20'4 5.4
2018-Jan-20 21:43N 27°49' W 097°24'  
2018-Jan-11 17:44N 29°44' W 095°08'0 0.2
2018-Jan-11 17:30N 29°44' W 095°08'1 2.2
2018-Jan-11 17:00N 29°45' W 095°06'2 4.4
2018-Jan-11 16:30N 29°45' W 095°04'3 6.5
2018-Jan-11 16:01N 29°43' W 095°01'5 9.2
2018-Jan-11 15:31N 29°39' W 094°58'510.3
2018-Jan-11 15:01N 29°34' W 094°55'510.9
2018-Jan-11 14:30N 29°30' W 094°52'510.8
2018-Jan-11 14:01N 29°25' W 094°49'510.5
2018-Jan-11 13:31N 29°21' W 094°46'  

Dump ship's entire track history